createdAt,value
2023-01-19T00:00:30.698Z,35.17
2023-01-19T00:02:57.635Z,33.75
2023-01-19T00:05:24.563Z,27.90
2023-01-19T00:07:51.333Z,24.38
2023-01-19T00:10:18.463Z,22.50
2023-01-19T00:12:45.218Z,32.55
2023-01-19T00:15:12.044Z,26.40
2023-01-19T00:17:41.049Z,33.00
2023-01-19T00:20:09.509Z,28.80
2023-01-19T00:22:36.324Z,25.30
2023-01-19T00:25:03.601Z,29.35
2023-01-19T00:27:34.871Z,28.77
2023-01-19T00:30:02.143Z,28.27
2023-01-19T00:32:29.201Z,31.08
2023-01-19T00:34:56.097Z,32.35
2023-01-19T00:37:23.041Z,30.20
2023-01-19T00:39:50.188Z,33.33
2023-01-19T00:42:35.399Z,34.20
2023-01-19T00:45:02.157Z,41.03
2023-01-19T00:47:28.986Z,34.47
2023-01-19T00:49:55.903Z,28.92
2023-01-19T00:52:22.684Z,32.90
2023-01-19T00:54:49.586Z,32.65
2023-01-19T00:57:16.813Z,32.75
2023-01-19T00:59:43.627Z,31.60
2023-01-19T01:02:11.572Z,34.38
2023-01-19T01:04:38.558Z,34.58
2023-01-19T01:07:05.359Z,36.65
2023-01-19T01:09:32.476Z,36.33
2023-01-19T01:11:59.296Z,34.45
2023-01-19T01:14:26.751Z,25.02
2023-01-19T01:16:53.693Z,28.92
2023-01-19T01:19:23.780Z,24.90
2023-01-19T01:21:51.233Z,36.55
2023-01-19T01:24:18.823Z,29.95
2023-01-19T01:26:46.000Z,23.13
2023-01-19T01:29:12.902Z,26.20
2023-01-19T01:31:39.709Z,30.50
2023-01-19T01:34:06.680Z,31.75
2023-01-19T01:36:33.520Z,21.73
2023-01-19T01:39:00.481Z,29.23
2023-01-19T01:41:27.625Z,27.27
2023-01-19T01:44:02.192Z,27.63
2023-01-19T01:46:31.368Z,26.63
2023-01-19T01:49:15.552Z,33.53
2023-01-19T01:51:49.957Z,27.33
2023-01-19T01:54:25.309Z,26.80
2023-01-19T01:56:55.224Z,31.52
2023-01-19T01:59:39.239Z,23.30
2023-01-19T02:02:29.573Z,25.60
2023-01-19T02:05:04.036Z,24.73
2023-01-19T02:08:04.109Z,27.00
2023-01-19T02:10:50.614Z,24.77
2023-01-19T02:13:20.862Z,25.83
2023-01-19T02:15:53.357Z,26.40
2023-01-19T02:18:22.313Z,26.30
2023-01-19T02:20:59.086Z,24.88
2023-01-19T02:23:49.354Z,22.98
2023-01-19T02:26:20.253Z,25.77
2023-01-19T02:28:53.325Z,22.95
2023-01-19T02:31:20.368Z,30.17
2023-01-19T02:33:47.098Z,27.98
2023-01-19T02:36:16.915Z,26.60
2023-01-19T02:38:45.898Z,23.13
2023-01-19T02:41:18.073Z,25.77
2023-01-19T02:43:45.621Z,22.85
2023-01-19T02:46:15.700Z,24.13
2023-01-19T02:48:42.772Z,21.13
2023-01-19T02:51:16.945Z,17.90
2023-01-19T02:54:08.617Z,28.88
2023-01-19T02:56:52.985Z,19.58
2023-01-19T02:59:29.969Z,20.33
2023-01-19T03:02:14.012Z,22.73
2023-01-19T03:05:08.513Z,26.88
2023-01-19T03:07:41.149Z,22.70
2023-01-19T03:10:41.230Z,25.52
2023-01-19T03:13:31.085Z,25.08
2023-01-19T03:16:41.266Z,25.50
2023-01-19T03:19:28.401Z,24.20
2023-01-19T03:21:59.321Z,30.50
2023-01-19T03:24:31.395Z,28.10
2023-01-19T03:27:06.087Z,44.22
2023-01-19T03:29:35.181Z,28.60
2023-01-19T03:32:06.371Z,24.98
2023-01-19T03:34:35.867Z,26.05
2023-01-19T03:37:04.777Z,36.58
2023-01-19T03:39:31.988Z,30.05
2023-01-19T03:42:04.716Z,26.50
2023-01-19T03:44:34.444Z,28.65
2023-01-19T03:47:02.439Z,25.50
2023-01-19T03:49:31.543Z,26.85
2023-01-19T03:51:59.462Z,23.05
2023-01-19T03:54:26.909Z,29.42
2023-01-19T03:56:54.045Z,27.77
2023-01-19T03:59:21.914Z,25.73
2023-01-19T04:01:49.201Z,26.50
2023-01-19T04:04:16.204Z,26.73
2023-01-19T04:06:43.950Z,33.10
2023-01-19T04:09:11.056Z,21.50
2023-01-19T04:11:37.762Z,23.25
2023-01-19T04:14:04.585Z,28.02
2023-01-19T04:16:31.320Z,19.77
2023-01-19T04:18:58.113Z,30.55
2023-01-19T04:21:24.993Z,25.58
2023-01-19T04:23:53.186Z,28.88
2023-01-19T04:26:20.440Z,27.80
2023-01-19T04:28:47.244Z,35.50
2023-01-19T04:31:14.449Z,22.77
2023-01-19T04:33:41.324Z,27.52
2023-01-19T04:36:08.712Z,34.33
2023-01-19T04:38:36.017Z,30.65
2023-01-19T04:41:02.819Z,29.85
2023-01-19T04:43:29.583Z,23.08
2023-01-19T04:45:56.808Z,22.00
2023-01-19T04:48:23.744Z,30.75
2023-01-19T04:50:52.473Z,31.02
2023-01-19T04:53:19.358Z,28.58
2023-01-19T04:55:46.828Z,30.08
2023-01-19T04:58:13.918Z,26.05
2023-01-19T05:00:40.679Z,28.17
2023-01-19T05:03:07.479Z,26.63
2023-01-19T05:05:34.307Z,27.67
2023-01-19T05:08:01.089Z,31.85
2023-01-19T05:10:28.294Z,27.75
2023-01-19T05:12:55.718Z,24.45
2023-01-19T05:15:22.605Z,28.50
2023-01-19T05:17:49.431Z,22.42
2023-01-19T05:20:17.360Z,22.88
2023-01-19T05:22:49.473Z,25.27
2023-01-19T05:25:16.290Z,25.23
2023-01-19T05:27:43.552Z,22.83
2023-01-19T05:30:11.758Z,21.13
2023-01-19T05:32:38.525Z,24.20
2023-01-19T05:35:05.778Z,22.58
2023-01-19T05:37:32.737Z,23.42
2023-01-19T05:39:59.591Z,22.23
2023-01-19T05:42:26.399Z,23.92
2023-01-19T05:44:53.179Z,27.42
2023-01-19T05:47:19.990Z,21.58
2023-01-19T05:49:46.734Z,29.17
2023-01-19T05:52:13.467Z,25.60
2023-01-19T05:54:40.487Z,25.85
2023-01-19T05:57:07.500Z,23.35
2023-01-19T05:59:34.448Z,21.75
2023-01-19T06:02:01.226Z,25.17
2023-01-19T06:04:28.174Z,32.67
2023-01-19T06:06:54.967Z,26.00
2023-01-19T06:09:21.785Z,25.33
2023-01-19T06:11:48.709Z,22.02
2023-01-19T06:14:15.647Z,34.10
2023-01-19T06:16:42.397Z,28.20
2023-01-19T06:19:09.829Z,29.45
2023-01-19T06:21:36.574Z,19.17
2023-01-19T06:24:03.619Z,17.65
2023-01-19T06:26:30.477Z,14.80
2023-01-19T06:28:57.283Z,21.48
2023-01-19T06:31:24.084Z,19.58
2023-01-19T06:33:50.900Z,27.92
2023-01-19T06:36:17.646Z,29.05
2023-01-19T06:38:44.449Z,30.90
2023-01-19T06:41:11.223Z,34.70
2023-01-19T06:43:37.933Z,30.25
2023-01-19T06:46:04.913Z,32.28
2023-01-19T06:48:31.844Z,52.00
2023-01-19T06:50:59.803Z,49.25
2023-01-19T06:53:28.304Z,36.40
2023-01-19T06:56:00.301Z,36.47
2023-01-19T06:58:28.296Z,40.90
2023-01-19T07:00:56.200Z,31.55
2023-01-19T07:03:23.708Z,35.85
2023-01-19T07:05:53.921Z,41.80
2023-01-19T07:08:21.133Z,88.00
2023-01-19T07:11:24.755Z,229.60
2023-01-19T07:13:36.009Z,437.30
2023-01-19T07:16:12.024Z,436.85
2023-01-19T07:21:07.352Z,524.13
2023-01-19T07:23:34.302Z,761.13
2023-01-19T07:26:01.801Z,489.92
2023-01-19T07:28:29.611Z,722.92
2023-01-19T07:30:58.608Z,533.97
2023-01-19T07:33:26.216Z,774.97
2023-01-19T07:35:54.407Z,796.53
2023-01-19T07:38:21.457Z,782.30
2023-01-19T07:40:48.292Z,707.30
2023-01-19T07:43:16.185Z,823.15
2023-01-19T07:45:43.780Z,722.15
2023-01-19T07:48:10.703Z,993.28
2023-01-19T07:50:37.559Z,876.15
2023-01-19T07:53:08.853Z,549.63
2023-01-19T07:55:36.062Z,155.55
2023-01-19T07:58:06.560Z,286.40
2023-01-19T08:00:34.259Z,111.28
2023-01-19T08:03:02.420Z,183.77
2023-01-19T08:05:30.031Z,160.05
2023-01-19T08:08:00.588Z,114.50
2023-01-19T08:10:28.961Z,112.20
2023-01-19T08:12:56.843Z,137.30
2023-01-19T08:15:24.772Z,107.50
2023-01-19T08:18:05.580Z,82.57
2023-01-19T08:20:32.566Z,87.85
2023-01-19T08:23:03.102Z,74.82
2023-01-19T08:25:36.231Z,79.05
2023-01-19T08:28:05.617Z,74.55
2023-01-19T08:30:32.995Z,46.92
2023-01-19T08:33:08.270Z,78.97
2023-01-19T08:35:41.189Z,97.80
2023-01-19T08:38:09.334Z,209.48
2023-01-19T08:40:38.720Z,250.23
2023-01-19T08:43:08.432Z,247.77
2023-01-19T08:45:36.584Z,300.98
2023-01-19T08:48:04.613Z,254.85
2023-01-19T08:50:33.136Z,446.20
2023-01-19T08:53:02.074Z,837.28
2023-01-19T08:55:30.326Z,613.42
2023-01-19T08:57:59.929Z,440.13
2023-01-19T09:00:27.634Z,553.42
2023-01-19T09:02:55.001Z,562.00
2023-01-19T09:05:22.269Z,454.38
2023-01-19T09:07:49.164Z,489.02
2023-01-19T09:10:16.729Z,525.45
2023-01-19T09:12:45.054Z,841.65
2023-01-19T09:15:13.914Z,515.63
2023-01-19T09:17:42.316Z,309.23
2023-01-19T09:20:09.829Z,358.65
2023-01-19T09:22:36.659Z,367.25
2023-01-19T09:25:03.741Z,547.50
2023-01-19T09:27:31.176Z,409.20
2023-01-19T09:29:57.910Z,589.38
2023-01-19T09:32:24.830Z,405.73
2023-01-19T09:34:53.942Z,329.42
2023-01-19T09:37:20.692Z,352.55
2023-01-19T09:39:48.900Z,654.30
2023-01-19T09:42:36.854Z,479.90
2023-01-19T09:45:12.175Z,178.52
2023-01-19T09:47:39.678Z,221.00
2023-01-19T09:50:20.826Z,395.40
2023-01-19T09:53:01.313Z,140.93
2023-01-19T09:55:28.762Z,485.85
2023-01-19T09:57:55.527Z,512.60
2023-01-19T10:00:24.336Z,462.92
2023-01-19T10:03:17.651Z,267.23
2023-01-19T10:05:52.640Z,592.53
2023-01-19T10:08:37.995Z,328.13
2023-01-19T10:11:15.696Z,193.40
2023-01-19T10:13:54.644Z,122.80
2023-01-19T10:16:33.838Z,122.40
2023-01-19T10:19:26.134Z,145.15
2023-01-19T10:21:55.195Z,519.58
2023-01-19T10:24:38.533Z,191.77
2023-01-19T10:27:18.936Z,339.38
2023-01-19T10:29:46.656Z,455.52
2023-01-19T10:32:25.735Z,354.92
2023-01-19T10:34:54.101Z,635.40
2023-01-19T10:37:31.854Z,454.90
2023-01-19T10:40:08.958Z,482.63
2023-01-19T10:42:36.592Z,537.63
2023-01-19T10:45:04.896Z,810.72
2023-01-19T10:47:35.211Z,800.10
2023-01-19T10:50:29.047Z,626.25
2023-01-19T10:52:59.345Z,595.58
2023-01-19T10:55:28.044Z,613.08
2023-01-19T10:57:55.383Z,603.67
2023-01-19T11:00:38.309Z,524.00
2023-01-19T11:03:26.819Z,431.27
2023-01-19T11:05:53.683Z,277.30
2023-01-19T11:08:30.567Z,560.67
2023-01-19T11:11:04.752Z,630.45
2023-01-19T11:13:32.381Z,622.78
2023-01-19T11:16:08.307Z,470.63
2023-01-19T11:21:09.241Z,343.23
2023-01-19T11:23:44.136Z,641.83
2023-01-19T11:26:25.343Z,602.58
2023-01-19T11:28:54.688Z,605.05
2023-01-19T11:31:31.415Z,331.50
2023-01-19T11:34:01.317Z,721.30
2023-01-19T11:36:30.943Z,321.25
2023-01-19T11:39:20.455Z,468.42
2023-01-19T11:41:51.844Z,897.17
2023-01-19T11:44:42.495Z,139.82
2023-01-19T11:47:25.050Z,257.90
2023-01-19T11:50:03.212Z,539.78
2023-01-19T11:52:51.505Z,529.30
2023-01-19T11:55:50.705Z,648.83
2023-01-19T11:58:19.034Z,560.63
2023-01-19T12:01:02.229Z,382.15
2023-01-19T12:03:42.403Z,621.83
2023-01-19T12:06:20.020Z,217.10
2023-01-19T12:08:55.458Z,280.20
2023-01-19T12:11:27.601Z,358.90
2023-01-19T12:13:54.689Z,442.58
2023-01-19T12:16:24.505Z,381.35
2023-01-19T12:19:05.261Z,118.80
2023-01-19T12:21:32.085Z,183.10
2023-01-19T12:24:08.120Z,107.53
2023-01-19T12:26:46.296Z,107.18
2023-01-19T12:29:19.913Z,72.28
2023-01-19T12:32:16.720Z,76.45
2023-01-19T12:37:30.756Z,78.28
2023-01-19T12:40:00.626Z,75.75
2023-01-19T12:42:28.287Z,83.13
2023-01-19T12:45:13.522Z,74.93
2023-01-19T12:47:40.507Z,70.07
2023-01-19T12:50:16.866Z,66.72
2023-01-19T12:53:00.237Z,70.85
2023-01-19T12:55:30.974Z,78.10
2023-01-19T12:58:17.730Z,78.85
2023-01-19T13:00:47.552Z,85.82
2023-01-19T13:03:17.391Z,70.55
2023-01-19T13:05:44.123Z,66.30
2023-01-19T13:08:13.607Z,55.42
2023-01-19T13:10:59.204Z,70.28
2023-01-19T13:13:33.401Z,53.13
2023-01-19T13:16:20.395Z,50.38
2023-01-19T13:18:57.461Z,50.10
2023-01-19T13:21:31.330Z,46.97
2023-01-19T13:24:00.018Z,55.55
2023-01-19T13:26:30.910Z,53.17
2023-01-19T13:29:05.237Z,58.45
2023-01-19T13:31:38.217Z,65.25
2023-01-19T13:34:11.621Z,56.28
2023-01-19T13:36:44.717Z,56.55
2023-01-19T13:39:20.004Z,53.45
2023-01-19T13:41:48.034Z,66.25
2023-01-19T13:44:18.671Z,56.92
2023-01-19T13:46:47.361Z,57.38
2023-01-19T13:49:29.005Z,53.42
2023-01-19T13:52:06.143Z,65.85
2023-01-19T13:54:33.012Z,53.88
2023-01-19T13:56:59.742Z,53.20
2023-01-19T13:59:26.544Z,57.45
2023-01-19T14:01:54.404Z,56.20
2023-01-19T14:04:25.383Z,47.30
2023-01-19T14:06:55.743Z,48.85
2023-01-19T14:09:22.717Z,60.67
2023-01-19T14:12:13.211Z,56.08
2023-01-19T14:14:41.347Z,41.92
2023-01-19T14:17:30.661Z,49.17
2023-01-19T14:20:00.918Z,52.17
2023-01-19T14:22:45.489Z,59.38
2023-01-19T14:25:35.269Z,61.05
2023-01-19T14:28:35.525Z,53.95
2023-01-19T14:31:04.564Z,58.10
2023-01-19T14:33:45.438Z,68.60
2023-01-19T14:36:39.280Z,65.97
2023-01-19T14:39:16.742Z,71.72
2023-01-19T14:41:54.694Z,63.75
2023-01-19T14:44:40.550Z,67.35
2023-01-19T14:47:31.910Z,63.05
2023-01-19T14:50:07.551Z,62.47
2023-01-19T14:52:42.276Z,58.42
2023-01-19T14:55:25.024Z,57.17
2023-01-19T14:57:52.015Z,58.08
2023-01-19T15:00:20.724Z,62.08
2023-01-19T15:02:47.861Z,65.40
2023-01-19T15:05:15.139Z,61.45
2023-01-19T15:07:44.672Z,58.95
2023-01-19T15:10:21.999Z,69.05
2023-01-19T15:12:50.518Z,68.13
2023-01-19T15:15:28.399Z,77.40
2023-01-19T15:17:56.303Z,59.53
2023-01-19T15:20:23.696Z,64.10
2023-01-19T15:22:50.799Z,61.55
2023-01-19T15:25:26.104Z,67.63
2023-01-19T15:27:57.056Z,55.45
2023-01-19T15:30:27.985Z,63.45
2023-01-19T15:32:54.840Z,67.40
2023-01-19T15:35:23.492Z,52.35
2023-01-19T15:37:50.775Z,62.55
2023-01-19T15:40:19.352Z,54.00
2023-01-19T15:42:46.550Z,48.28
2023-01-19T15:45:25.167Z,60.50
2023-01-19T15:47:51.908Z,50.75
2023-01-19T15:50:20.143Z,56.03
2023-01-19T15:52:47.137Z,43.38
2023-01-19T15:55:15.934Z,52.30
2023-01-19T15:57:43.069Z,61.50
2023-01-19T16:00:11.252Z,59.92
2023-01-19T16:02:38.359Z,62.42
2023-01-19T16:05:05.600Z,60.40
2023-01-19T16:07:34.002Z,60.42
2023-01-19T16:10:01.563Z,55.58
2023-01-19T16:12:31.633Z,56.78
2023-01-19T16:14:58.407Z,56.55
2023-01-19T16:17:25.173Z,58.55
2023-01-19T16:19:52.148Z,53.17
2023-01-19T16:22:18.897Z,54.75
2023-01-19T16:24:45.767Z,47.50
2023-01-19T16:27:12.557Z,56.53
2023-01-19T16:29:39.328Z,57.85
2023-01-19T16:32:06.149Z,45.42
2023-01-19T16:34:32.999Z,58.88
2023-01-19T16:36:59.833Z,51.85
2023-01-19T16:39:26.610Z,49.00
2023-01-19T16:41:53.370Z,50.13
2023-01-19T16:44:20.144Z,51.25
2023-01-19T16:46:49.780Z,46.33
2023-01-19T16:49:17.945Z,52.08
2023-01-19T16:51:45.585Z,59.85
2023-01-19T16:54:17.690Z,41.70
2023-01-19T16:56:44.674Z,48.25
2023-01-19T16:59:13.472Z,49.38
2023-01-19T17:01:40.814Z,44.78
2023-01-19T17:04:08.453Z,51.85
2023-01-19T17:06:35.434Z,41.97
2023-01-19T17:09:02.868Z,41.78
2023-01-19T17:11:31.751Z,49.90
2023-01-19T17:14:14.009Z,51.88
2023-01-19T17:16:41.614Z,48.67
2023-01-19T17:19:09.321Z,57.85
2023-01-19T17:21:36.350Z,41.50
2023-01-19T17:24:03.433Z,42.05
2023-01-19T17:26:31.185Z,61.33
2023-01-19T17:29:01.351Z,49.63
2023-01-19T17:31:28.549Z,64.40
2023-01-19T17:33:55.702Z,47.88
2023-01-19T17:36:25.309Z,46.50
2023-01-19T17:38:53.394Z,50.63
2023-01-19T17:41:28.305Z,59.92
2023-01-19T17:43:55.516Z,63.55
2023-01-19T17:46:25.083Z,47.63
2023-01-19T17:48:56.229Z,59.30
2023-01-19T17:51:23.770Z,57.72
2023-01-19T17:53:51.653Z,41.17
2023-01-19T17:56:23.376Z,61.88
2023-01-19T17:58:50.254Z,51.90
2023-01-19T18:01:23.317Z,53.70
2023-01-19T18:03:50.475Z,50.00
2023-01-19T18:06:17.474Z,49.15
2023-01-19T18:08:46.330Z,61.38
2023-01-19T18:11:14.127Z,41.72
2023-01-19T18:13:43.599Z,47.45
2023-01-19T18:16:17.464Z,38.13
2023-01-19T18:18:44.393Z,41.30
2023-01-19T18:21:13.400Z,48.55
2023-01-19T18:23:40.644Z,50.92
2023-01-19T18:26:10.325Z,37.58
2023-01-19T18:28:37.661Z,41.67
2023-01-19T18:31:08.985Z,40.35
2023-01-19T18:33:36.577Z,43.20
2023-01-19T18:36:04.262Z,49.05
2023-01-19T18:38:31.020Z,50.63
2023-01-19T18:41:02.314Z,49.42
2023-01-19T18:43:30.240Z,49.35
2023-01-19T18:45:57.124Z,42.60
2023-01-19T18:48:24.237Z,41.10
2023-01-19T18:50:51.474Z,45.78
2023-01-19T18:53:18.476Z,41.60
2023-01-19T18:55:56.421Z,38.70
2023-01-19T18:58:24.127Z,41.35
2023-01-19T19:00:51.446Z,45.72
2023-01-19T19:03:18.285Z,34.22
2023-01-19T19:05:45.085Z,38.03
2023-01-19T19:08:11.999Z,32.20
2023-01-19T19:10:41.221Z,44.17
2023-01-19T19:13:09.227Z,39.58
2023-01-19T19:15:36.073Z,35.80
2023-01-19T19:18:03.180Z,37.50
2023-01-19T19:20:30.134Z,42.10
2023-01-19T19:22:57.011Z,35.15
2023-01-19T19:25:23.988Z,42.22
2023-01-19T19:27:51.841Z,48.35
2023-01-19T19:30:19.984Z,42.97
2023-01-19T19:32:53.160Z,45.28
2023-01-19T19:35:21.300Z,42.72
2023-01-19T19:37:48.973Z,36.58
2023-01-19T19:40:16.216Z,39.05
2023-01-19T19:42:43.124Z,33.88
2023-01-19T19:45:10.647Z,35.35
2023-01-19T19:47:37.488Z,38.10
2023-01-19T19:50:04.369Z,41.22
2023-01-19T19:52:31.999Z,35.38
2023-01-19T19:54:58.830Z,36.60
2023-01-19T19:57:25.787Z,35.63
2023-01-19T19:59:52.588Z,44.92
2023-01-19T20:02:19.410Z,31.15
2023-01-19T20:04:46.287Z,40.83
2023-01-19T20:07:13.625Z,37.75
2023-01-19T20:09:40.401Z,39.05
2023-01-19T20:12:07.463Z,30.90
2023-01-19T20:14:34.604Z,38.05
2023-01-19T20:17:01.461Z,29.63
2023-01-19T20:19:28.311Z,40.58
2023-01-19T20:21:55.098Z,32.47
2023-01-19T20:24:21.946Z,39.00
2023-01-19T20:26:52.347Z,36.70
2023-01-19T20:29:20.569Z,29.63
2023-01-19T20:31:53.745Z,42.72
2023-01-19T20:34:23.654Z,40.03
2023-01-19T20:36:53.325Z,47.75
2023-01-19T20:39:21.866Z,43.47
2023-01-19T20:41:51.222Z,40.45
2023-01-19T20:44:21.357Z,45.20
2023-01-19T20:46:48.655Z,31.35
2023-01-19T20:49:16.171Z,50.22
2023-01-19T20:51:45.332Z,41.55
2023-01-19T20:54:14.370Z,37.28
2023-01-19T20:56:41.829Z,44.85
2023-01-19T20:59:10.132Z,48.95
2023-01-19T21:01:37.264Z,40.00
2023-01-19T21:04:04.299Z,35.95
2023-01-19T21:06:31.653Z,41.00
2023-01-19T21:08:58.803Z,40.72
2023-01-19T21:11:25.975Z,39.67
2023-01-19T21:13:56.442Z,39.20
2023-01-19T21:16:28.352Z,40.50
2023-01-19T21:18:55.437Z,41.53
2023-01-19T21:21:30.321Z,39.60
2023-01-19T21:23:59.849Z,42.40
2023-01-19T21:26:26.866Z,38.92
2023-01-19T21:28:53.662Z,36.05
2023-01-19T21:31:22.700Z,47.25
2023-01-19T21:33:53.632Z,44.90
2023-01-19T21:36:21.525Z,39.53
2023-01-19T21:38:50.684Z,46.05
2023-01-19T21:41:17.596Z,39.28
2023-01-19T21:43:44.586Z,47.72
2023-01-19T21:46:14.397Z,40.25
2023-01-19T21:48:42.076Z,32.45
2023-01-19T21:51:09.441Z,39.70
2023-01-19T21:53:36.269Z,36.45
2023-01-19T21:56:05.286Z,39.97
2023-01-19T21:58:32.072Z,37.42
2023-01-19T22:01:04.123Z,48.22
2023-01-19T22:03:31.527Z,49.85
2023-01-19T22:06:07.060Z,41.25
2023-01-19T22:08:34.474Z,37.15
2023-01-19T22:11:09.775Z,46.97
2023-01-19T22:13:40.442Z,38.53
2023-01-19T22:16:10.438Z,29.02
2023-01-19T22:18:39.008Z,37.63
2023-01-19T22:21:13.206Z,40.58
2023-01-19T22:23:40.932Z,44.70
2023-01-19T22:26:08.916Z,35.47
2023-01-19T22:28:36.223Z,37.90
2023-01-19T22:31:08.743Z,46.42
2023-01-19T22:33:36.790Z,39.78
2023-01-19T22:36:19.740Z,50.95
2023-01-19T22:38:51.572Z,37.40
2023-01-19T22:41:25.766Z,36.70
2023-01-19T22:44:04.643Z,40.83
2023-01-19T22:46:34.223Z,51.78
2023-01-19T22:49:01.483Z,53.45
2023-01-19T22:51:29.690Z,45.28
2023-01-19T22:53:56.611Z,36.22
2023-01-19T22:56:26.515Z,44.30
2023-01-19T22:58:54.195Z,52.90
2023-01-19T23:01:26.341Z,45.03
2023-01-19T23:03:54.366Z,39.58
2023-01-19T23:06:24.600Z,44.28
2023-01-19T23:08:52.134Z,45.50
2023-01-19T23:11:22.385Z,46.83
2023-01-19T23:13:50.166Z,41.90
2023-01-19T23:16:17.521Z,37.42
2023-01-19T23:18:44.571Z,45.75
2023-01-19T23:21:16.866Z,44.72
2023-01-19T23:23:44.684Z,48.40
2023-01-19T23:26:27.267Z,43.38
2023-01-19T23:28:56.658Z,43.88
2023-01-19T23:31:32.053Z,42.72
2023-01-19T23:34:04.308Z,46.58
2023-01-19T23:36:33.904Z,47.92
2023-01-19T23:39:19.106Z,54.55
2023-01-19T23:41:46.389Z,45.30
2023-01-19T23:44:13.800Z,51.72
2023-01-19T23:46:40.974Z,39.63
2023-01-19T23:49:07.808Z,45.03
2023-01-19T23:51:35.820Z,45.20
2023-01-19T23:54:03.215Z,45.67
2023-01-19T23:56:33.445Z,44.60
2023-01-19T23:59:08.733Z,56.33
